^^
Datos históricos de la estación: Murcia-Puente Tocinos
Diario Informe para Junio 19, 2021 Unidades:  Métrico    Ingés   Ambas
Diario Semanal Mensual Anual
  Máxima: Mínima: Promedio:
Temperatura: 26.3 °C 21.3 °C 23.2 °C
Punto de rocio: 19.7 °C 18.4 °C 18.9 °C
Humedad: 88% 64.9% 77%
Velocidad viento: 14.8km/h 3.2km/h 7.7km/h
Racha viento: 29km/h - -
Viento- - ESE
Presión: 1013.6 hPa 1010.7 hPa -
Precipitación: 0.5 mm    
 
 
Tabla de datos para Junio 19, 2021
Hora Temperatura Punto de rocio Presión Viento Velocidad viento Racha viento Humedad Intensidad lluvia(por hora) Nubes
00:04 22.4 °C 19 °C 1013.4 hPa NE 5.8 km/h 11.3 km/h 81% 0.0 mm
00:09 22.4 °C 19 °C 1013.4 hPa NE 5.8 km/h 11.3 km/h 81% 0.0 mm
00:14 22.4 °C 19 °C 1013.4 hPa NE 5.8 km/h 9.5 km/h 81% 0.0 mm
00:19 22.4 °C 19 °C 1013.4 hPa NE 5.8 km/h 9.7 km/h 81% 0.0 mm
00:24 22.4 °C 19 °C 1013.4 hPa NNE 5.8 km/h 9.7 km/h 81% 0.0 mm
00:29 22.4 °C 19 °C 1013.3 hPa ENE 5.1 km/h 9.3 km/h 81% 0.0 mm
00:34 22.4 °C 19 °C 1013.3 hPa NE 4.6 km/h 9.7 km/h 81% 0.0 mm
00:39 22.4 °C 19 °C 1013.3 hPa NNO 4.6 km/h 10.3 km/h 81% 0.0 mm
00:44 22.4 °C 19 °C 1013.0 hPa NNO 4.7 km/h 11.1 km/h 81% 0.0 mm
00:49 22.4 °C 19 °C 1013.0 hPa ONO 5.3 km/h 11.3 km/h 81.2% 0.0 mm
00:54 22.4 °C 19.1 °C 1013.0 hPa Este 5.8 km/h 11.1 km/h 81.6% 0.0 mm
00:59 22.3 °C 19 °C 1013.0 hPa NE 5.3 km/h 11.3 km/h 81.4% 0.0 mm
01:04 22.3 °C 19.1 °C 1013.0 hPa SE 5 km/h 9.7 km/h 82% 0.0 mm
01:09 22.4 °C 19 °C 1013.2 hPa ESE 4.8 km/h 8 km/h 81.2% 0.0 mm
01:14 22.3 °C 18.9 °C 1013.2 hPa Este 4.6 km/h 7.4 km/h 81% 0.0 mm
01:19 22.3 °C 18.9 °C 1013.2 hPa NE 4.7 km/h 8.4 km/h 81.3% 0.0 mm
01:24 22.3 °C 19 °C 1013.2 hPa NE 4.7 km/h 11.9 km/h 81.9% 0.0 mm
01:29 22.2 °C 19 °C 1013.0 hPa NE 5.6 km/h 11.3 km/h 82% 0.0 mm
01:34 22.2 °C 19 °C 1013.0 hPa NE 6.5 km/h 11.3 km/h 82% 0.0 mm
01:39 22.2 °C 18.9 °C 1013.0 hPa NE 6.5 km/h 11.3 km/h 82% 0.0 mm
01:44 22.1 °C 18.9 °C 1012.6 hPa NE 6.5 km/h 9.7 km/h 82% 0.0 mm
01:49 22.1 °C 18.9 °C 1012.6 hPa NE 6.1 km/h 9.7 km/h 82% 0.0 mm
01:51 22.1 °C 18.9 °C 1012.6 hPa North 5.8 km/h 9.5 km/h 82% 0.0 mm
01:59 22 °C 18.8 °C 1013.0 hPa NNE 5.8 km/h 10 km/h 82% 0.0 mm
02:04 21.9 °C 18.7 °C 1013.0 hPa NNE 5.8 km/h 9.7 km/h 82% 0.0 mm
02:09 21.9 °C 18.8 °C 1013.1 hPa NE 5.8 km/h 11.9 km/h 82.6% 0.0 mm
02:14 21.9 °C 18.9 °C 1013.1 hPa NNE 5.8 km/h 11.3 km/h 83% 0.0 mm
02:19 21.9 °C 18.9 °C 1013.1 hPa NNE 5.8 km/h 9.7 km/h 83% 0.0 mm
02:24 21.9 °C 18.9 °C 1013.1 hPa NNE 5.8 km/h 8 km/h 83% 0.0 mm
02:29 21.8 °C 18.8 °C 1013.1 hPa NNE 5.1 km/h 8 km/h 83% 0.0 mm
02:34 21.8 °C 18.8 °C 1013.1 hPa North 4.7 km/h 8 km/h 83% 0.0 mm
02:39 21.8 °C 18.8 °C 1013.3 hPa NO 4.6 km/h 8.7 km/h 83% 0.0 mm
02:44 21.8 °C 18.8 °C 1013.3 hPa NO 4.7 km/h 9.7 km/h 83.1% 0.0 mm
02:49 21.7 °C 18.9 °C 1013.3 hPa ONO 5.3 km/h 9.7 km/h 84% 0.0 mm
02:54 21.7 °C 18.9 °C 1013.3 hPa NO 5.8 km/h 9.7 km/h 84% 0.0 mm
02:59 21.7 °C 18.9 °C 1013.3 hPa NO 5 km/h 8 km/h 84% 0.0 mm
03:04 21.7 °C 19 °C 1013.3 hPa NO 4.6 km/h 8 km/h 84.5% 0.0 mm
03:09 21.7 °C 19.1 °C 1013.3 hPa NO 4.8 km/h 8.4 km/h 85% 0.0 mm
03:14 21.7 °C 19.1 °C 1013.2 hPa NNO 5 km/h 9.5 km/h 85% 0.0 mm
03:19 21.6 °C 19 °C 1013.2 hPa NNO 4.8 km/h 9.7 km/h 85% 0.0 mm
03:24 21.6 °C 18.9 °C 1013.2 hPa NO 4.7 km/h 8 km/h 85% 0.0 mm
03:29 21.6 °C 18.9 °C 1013.2 hPa North 4.2 km/h 8 km/h 85% 0.0 mm
03:34 21.6 °C 18.9 °C 1013.2 hPa North 3.9 km/h 9.3 km/h 85% 0.0 mm
03:39 21.6 °C 18.9 °C 1013.2 hPa NNE 4.9 km/h 9.7 km/h 85% 0.0 mm
03:44 21.5 °C 18.9 °C 1013.0 hPa North 5.8 km/h 10 km/h 85% 0.0 mm
03:49 21.5 °C 19 °C 1013.0 hPa North 5.8 km/h 9.7 km/h 85.5% 0.0 mm
03:54 21.5 °C 19.1 °C 1013.0 hPa NNE 5.8 km/h 9.7 km/h 86% 0.0 mm
03:59 21.5 °C 19 °C 1012.9 hPa NE 5.1 km/h 8.7 km/h 86% 0.0 mm
04:04 21.5 °C 19 °C 1012.9 hPa North 4.6 km/h 8 km/h 86% 0.0 mm
04:09 21.5 °C 19.1 °C 1013.1 hPa NNE 4.2 km/h 8 km/h 86% 0.0 mm
04:14 21.5 °C 19.1 °C 1013.1 hPa NNO 3.9 km/h 7.4 km/h 86% 0.0 mm
04:19 21.5 °C 19.1 °C 1013.1 hPa NNO 3.8 km/h 9.5 km/h 86% 0.0 mm
04:24 21.5 °C 19 °C 1013.1 hPa North 3.9 km/h 9.7 km/h 86% 0.0 mm
04:29 21.4 °C 18.9 °C 1012.9 hPa NO 4.6 km/h 10 km/h 86% 0.0 mm
04:34 21.4 °C 18.9 °C 1012.7 hPa NO 5 km/h 9.7 km/h 86% 0.0 mm
04:39 21.4 °C 19 °C 1012.7 hPa NO 4.8 km/h 9.7 km/h 86.1% 0.0 mm
04:44 21.4 °C 19.1 °C 1012.6 hPa NO 4.6 km/h 8 km/h 86.8% 0.0 mm
04:49 21.4 °C 19 °C 1012.6 hPa NO 4.6 km/h 8 km/h 86.2% 0.0 mm
04:54 21.4 °C 19.2 °C 1012.6 hPa ONO 4.6 km/h 8.4 km/h 87% 0.0 mm
04:59 21.4 °C 19.2 °C 1012.6 hPa NO 4.1 km/h 8.4 km/h 87% 0.0 mm
05:04 21.4 °C 19.2 °C 1012.5 hPa NO 3.9 km/h 9.3 km/h 87% 0.0 mm
05:09 21.4 °C 19.2 °C 1012.5 hPa NO 4.5 km/h 9.7 km/h 87% 0.0 mm
05:14 21.4 °C 19.2 °C 1012.5 hPa NO 5 km/h 8.4 km/h 87% 0.0 mm
05:19 21.3 °C 19.1 °C 1012.5 hPa NO 4.8 km/h 8.7 km/h 87% 0.0 mm
05:24 21.3 °C 19.1 °C 1012.5 hPa ONO 4.6 km/h 9.7 km/h 87% 0.0 mm
05:29 21.3 °C 19.1 °C 1012.5 hPa Oeste 5.3 km/h 10 km/h 87.1% 0.0 mm
05:34 21.3 °C 19.2 °C 1012.4 hPa Oeste 5.8 km/h 11.1 km/h 87.9% 0.0 mm
05:39 21.3 °C 19.2 °C 1012.9 hPa OSO 5.8 km/h 10 km/h 88% 0.0 mm
05:44 21.3 °C 19.2 °C 1012.9 hPa Oeste 5.8 km/h 10 km/h 88% 0.0 mm
05:49 21.3 °C 19.2 °C 1012.9 hPa Oeste 5.3 km/h 9.7 km/h 88% 0.0 mm
05:54 21.3 °C 19.1 °C 1012.9 hPa Oeste 5 km/h 11.1 km/h 87.2% 0.0 mm
05:59 21.4 °C 19.2 °C 1012.6 hPa Oeste 4.8 km/h 11.3 km/h 87% 0.0 mm
06:04 21.4 °C 19.2 °C 1012.4 hPa North 4.6 km/h 7.4 km/h 87% 0.0 mm
06:09 21.4 °C 19.2 °C 1012.4 hPa NNE 3.8 km/h 8 km/h 87% 0.0 mm
06:14 21.4 °C 19.2 °C 1011.9 hPa NNE 3.2 km/h 8.7 km/h 87% 0.0 mm
06:19 21.4 °C 19.2 °C 1011.7 hPa NE 4 km/h 9.7 km/h 87% 0.0 mm
06:24 21.3 °C 19.1 °C 1011.7 hPa NNE 4.6 km/h 9.7 km/h 87% 0.0 mm
06:29 21.3 °C 19.1 °C 1010.9 hPa North 5.3 km/h 9.7 km/h 87% 0.0 mm
06:34 21.3 °C 19.1 °C 1010.7 hPa ONO 5.8 km/h 9.5 km/h 87% 0.0 mm
06:39 21.3 °C 19.1 °C 1011.4 hPa OSO 5.3 km/h 17.2 km/h 87% 0.0 mm
06:44 21.3 °C 19.1 °C 1011.4 hPa OSO 5 km/h 17.7 km/h 87% 0.0 mm
06:49 21.4 °C 19.2 °C 1011.4 hPa SO 7.6 km/h 18.5 km/h 87% 0.0 mm
06:54 21.5 °C 19.2 °C 1012.3 hPa SO 10 km/h 20.4 km/h 86.7% 0.0 mm
06:59 21.6 °C 19.2 °C 1012.3 hPa SO 11.1 km/h 20.4 km/h 86% 0.0 mm
07:04 21.5 °C 19 °C 1012.3 hPa SO 11.9 km/h 20.4 km/h 86% 0.0 mm
07:09 21.4 °C 18.9 °C 1012.3 hPa SO 11 km/h 20.9 km/h 86% 0.0 mm
07:14 21.4 °C 19 °C 1012.2 hPa SO 10.3 km/h 14.5 km/h 86% 0.0 mm
07:19 21.4 °C 18.9 °C 1012.2 hPa OSO 8.8 km/h 12.9 km/h 86% 0.0 mm
07:24 21.3 °C 18.9 °C 1012.2 hPa OSO 7.6 km/h 13 km/h 86% 0.0 mm
07:29 21.3 °C 18.9 °C 1011.9 hPa SO 8 km/h 16.7 km/h 86.3% 0.0 mm
07:34 21.3 °C 19 °C 1011.8 hPa Sur 8.4 km/h 18.5 km/h 86.9% 0.0 mm
07:39 21.3 °C 18.9 °C 1011.9 hPa SO 8.5 km/h 19.3 km/h 86% 0.0 mm
07:44 21.4 °C 18.9 °C 1011.9 hPa Sur 8.7 km/h 16.1 km/h 86% 0.0 mm
07:49 21.4 °C 18.9 °C 1011.9 hPa SSE 8 km/h 16.7 km/h 86% 0.0 mm
07:54 21.4 °C 18.9 °C 1012.2 hPa SSE 7.6 km/h 16.1 km/h 85.4% 0.0 mm
07:59 21.4 °C 18.8 °C 1012.2 hPa Sur 6.5 km/h 11.3 km/h 85% 0.0 mm
08:04 21.4 °C 18.8 °C 1012.2 hPa SSE 5.8 km/h 15.6 km/h 85% 0.0 mm
08:09 21.5 °C 18.9 °C 1012.4 hPa SE 7.2 km/h 16.1 km/h 85% 0.0 mm
08:14 21.6 °C 18.9 °C 1012.4 hPa ESE 8.4 km/h 8 km/h 85% 0.0 mm
08:19 21.7 °C 19 °C 1012.4 hPa SE 6.3 km/h 9.7 km/h 84.9% 0.0 mm
08:24 21.7 °C 18.9 °C 1012.5 hPa Sur 4.6 km/h 8 km/h 84% 0.0 mm
08:29 21.7 °C 18.8 °C 1012.5 hPa SSO 4.8 km/h 11.1 km/h 83.4% 0.0 mm
08:34 21.7 °C 18.7 °C 1012.5 hPa SSE 5 km/h 11.3 km/h 83% 0.0 mm
08:39 21.8 °C 18.9 °C 1012.9 hPa Este 5 km/h 11.3 km/h 83.6% 0.0 mm
08:44 21.9 °C 18.9 °C 1012.9 hPa Sur 5 km/h 7.4 km/h 83% 0.0 mm
08:49 21.9 °C 18.9 °C 1012.9 hPa SE 4.3 km/h 8 km/h 83% 0.0 mm
08:54 22 °C 19 °C 1012.9 hPa ENE 3.9 km/h 8 km/h 83% 0.0 mm
08:59 22.1 °C 19 °C 1012.7 hPa ENE 3.5 km/h 8 km/h 82.5% 0.0 mm
09:04 22.2 °C 19 °C 1012.7 hPa Este 3.2 km/h 8 km/h 82% 0.0 mm
09:09 22.2 °C 18.9 °C 1013.3 hPa Este 4.3 km/h 9.3 km/h 82% 0.0 mm
09:14 22.2 °C 18.9 °C 1013.3 hPa ENE 5 km/h 9.7 km/h 82% 0.0 mm
09:19 22.2 °C 19 °C 1013.3 hPa NE 5 km/h 9.7 km/h 82% 0.0 mm
09:24 22.2 °C 18.9 °C 1013.3 hPa ENE 5 km/h 7.6 km/h 81.4% 0.0 mm
09:29 22.2 °C 18.8 °C 1013.3 hPa NE 4.8 km/h 10 km/h 81% 0.0 mm
09:34 22.3 °C 18.9 °C 1013.3 hPa NNE 4.6 km/h 10.3 km/h 81% 0.0 mm
09:39 22.3 °C 19 °C 1013.4 hPa NNE 5.9 km/h 11.9 km/h 81% 0.0 mm
09:44 22.4 °C 19.1 °C 1013.4 hPa NNE 6.9 km/h 11.3 km/h 81.6% 0.0 mm
09:49 22.4 °C 19.2 °C 1013.4 hPa NNE 6.6 km/h 9.7 km/h 82% 0.0 mm
09:54 22.4 °C 19.2 °C 1013.6 hPa NNE 6.5 km/h 9.7 km/h 82% 0.0 mm
09:59 22.4 °C 19.2 °C 1013.6 hPa NE 6.1 km/h 9.7 km/h 82% 0.0 mm
10:04 22.4 °C 19.2 °C 1013.6 hPa NE 5.8 km/h 11.1 km/h 81.8% 0.0 mm
10:09 22.5 °C 19 °C 1013.6 hPa NNE 6.5 km/h 11.3 km/h 80.6% 0.0 mm
10:14 22.7 °C 18.9 °C 1013.3 hPa NNE 6.9 km/h 11.3 km/h 79.2% 0.0 mm
10:19 22.8 °C 18.8 °C 1013.3 hPa NNE 6.2 km/h 9.7 km/h 78.1% 0.0 mm
10:24 22.8 °C 18.7 °C 1013.3 hPa NNE 5.8 km/h 9.7 km/h 77.8% 0.0 mm
10:29 22.9 °C 18.7 °C 1013.1 hPa NE 5.8 km/h 9.7 km/h 77% 0.0 mm
10:34 22.9 °C 18.5 °C 1013.1 hPa North 5.8 km/h 9.7 km/h 76.1% 0.0 mm
10:39 23 °C 18.5 °C 1013.5 hPa NNE 5.3 km/h 9.7 km/h 76% 0.0 mm
10:44 23.1 °C 18.6 °C 1013.5 hPa NE 5 km/h 9.3 km/h 75.6% 0.0 mm
10:49 23.2 °C 18.6 °C 1013.5 hPa NNE 5 km/h 9.7 km/h 75.2% 0.0 mm
10:54 23.3 °C 18.6 °C 1013.5 hPa NNE 5 km/h 11.9 km/h 74.8% 0.0 mm
10:59 23.4 °C 18.5 °C 1013.2 hPa NNE 5.5 km/h 11.3 km/h 74% 0.0 mm
11:04 23.6 °C 18.6 °C 1013.2 hPa NNE 5.8 km/h 11.3 km/h 74% 0.0 mm
11:09 23.7 °C 18.6 °C 1013.2 hPa ENE 6 km/h 11.9 km/h 73.2% 0.0 mm
11:14 23.7 °C 18.6 °C 1012.9 hPa NNE 6.5 km/h 11.3 km/h 73% 0.0 mm
11:19 23.8 °C 18.7 °C 1012.9 hPa NE 6.6 km/h 13 km/h 73.2% 0.0 mm
11:24 24 °C 18.7 °C 1013.1 hPa NNE 6.9 km/h 13 km/h 72.4% 0.0 mm
11:29 24.1 °C 18.6 °C 1013.1 hPa NNE 6.9 km/h 14.8 km/h 71.5% 0.0 mm
11:34 24 °C 18.6 °C 1013.1 hPa NNE 6.9 km/h 14.5 km/h 71.6% 0.0 mm
11:39 24.2 °C 18.8 °C 1013.1 hPa NNE 6.7 km/h 12.9 km/h 72% 0.0 mm
11:44 24.3 °C 18.8 °C 1013.0 hPa North 6.5 km/h 14.8 km/h 71.4% 0.0 mm
11:49 24.4 °C 18.6 °C 1013.0 hPa NNE 5.7 km/h 14.8 km/h 70% 0.0 mm
11:54 24.3 °C 18.6 °C 1013.0 hPa NO 5 km/h 14.5 km/h 70.3% 0.0 mm
11:59 24.4 °C 18.5 °C 1012.6 hPa ENE 5.5 km/h 14.8 km/h 69.7% 0.0 mm
12:04 24.3 °C 18.5 °C 1012.5 hPa NE 5.8 km/h 18.5 km/h 70% 0.0 mm
12:09 24.3 °C 18.6 °C 1012.7 hPa NE 7.3 km/h 19.3 km/h 70.6% 0.0 mm
12:14 24.4 °C 18.8 °C 1012.7 hPa NE 8.7 km/h 16.1 km/h 71% 0.0 mm
12:19 24.6 °C 19 °C 1012.7 hPa North 8.1 km/h 19 km/h 71% 0.0 mm
12:24 24.8 °C 19.2 °C 1012.7 hPa North 7.6 km/h 19.3 km/h 71% 0.0 mm
12:29 25 °C 19.3 °C 1012.7 hPa NNO 8 km/h 16.1 km/h 70.5% 0.0 mm
12:34 25.1 °C 19.2 °C 1012.7 hPa NNE 8.4 km/h 19 km/h 70% 0.0 mm
12:39 25 °C 19 °C 1012.7 hPa NNE 9.5 km/h 19.3 km/h 69.3% 0.0 mm
12:44 25.1 °C 19 °C 1012.6 hPa ENE 10.3 km/h 19.3 km/h 69% 0.0 mm
12:49 25.2 °C 19.1 °C 1012.6 hPa NE 9.4 km/h 17.7 km/h 69% 0.0 mm
12:54 25.2 °C 19.1 °C 1012.6 hPa NNE 8.7 km/h 22.2 km/h 69% 0.0 mm
12:59 25.1 °C 19.1 °C 1012.1 hPa NNE 10.6 km/h 22.5 km/h 69.6% 0.0 mm
13:04 25.2 °C 19.1 °C 1012.1 hPa NNE 11.9 km/h 22.5 km/h 69.2% 0.0 mm
13:09 25.3 °C 19.1 °C 1012.1 hPa NE 10.8 km/h 20.9 km/h 68.7% 0.0 mm
13:14 25.3 °C 18.9 °C 1012.1 hPa NNE 10 km/h 20.4 km/h 68% 0.0 mm
13:19 25.4 °C 19.1 °C 1012.1 hPa NE 10.2 km/h 20.9 km/h 68.1% 0.0 mm
13:24 25.5 °C 19.1 °C 1012.1 hPa NNE 10.3 km/h 20.1 km/h 67.7% 0.0 mm
13:29 25.6 °C 18.9 °C 1011.8 hPa NE 9.9 km/h 20.9 km/h 66.4% 0.0 mm
13:34 25.7 °C 18.9 °C 1011.8 hPa NNE 9.5 km/h 20.9 km/h 66.2% 0.0 mm
13:39 25.7 °C 18.8 °C 1012.1 hPa NE 9 km/h 19 km/h 65.7% 0.0 mm
13:44 25.6 °C 18.8 °C 1012.1 hPa NE 8.7 km/h 19.3 km/h 66.1% 0.0 mm
13:49 25.5 °C 18.6 °C 1012.1 hPa NE 9.6 km/h 15.6 km/h 65.5% 0.0 mm
13:54 25.5 °C 18.7 °C 1012.6 hPa ENE 10.3 km/h 16.1 km/h 66% 0.0 mm
13:59 25.7 °C 18.7 °C 1012.6 hPa NE 9.1 km/h 18.5 km/h 65.3% 0.0 mm
14:04 25.7 °C 18.9 °C 1012.6 hPa NNE 8.4 km/h 19.3 km/h 66% 0.0 mm
14:09 25.8 °C 19 °C 1013.2 hPa Este 7.3 km/h 13.7 km/h 66% 0.0 mm
14:14 26.1 °C 19 °C 1013.2 hPa Este 6.5 km/h 14.8 km/h 65.1% 0.0 mm
14:19 26.2 °C 19.1 °C 1013.2 hPa NE 7.6 km/h 20.1 km/h 65% 0.0 mm
14:24 26.1 °C 19.1 °C 1013.2 hPa NNE 8.4 km/h 20.9 km/h 65.2% 0.0 mm
14:29 26 °C 18.9 °C 1012.3 hPa North 9.5 km/h 20.9 km/h 65.1% 0.0 mm
14:34 26.1 °C 19.1 °C 1012.2 hPa NNE 10.3 km/h 16.7 km/h 65.8% 0.0 mm
14:39 26.2 °C 19.1 °C 1012.2 hPa NNE 8.8 km/h 14.5 km/h 65% 0.0 mm
14:44 26.3 °C 19.2 °C 1012.2 hPa NNE 7.6 km/h 13 km/h 65% 0.0 mm
14:49 26.2 °C 19.1 °C 1012.2 hPa NNE 7.6 km/h 14.8 km/h 64.9% 0.0 mm
14:54 26.1 °C 19 °C 1012.2 hPa NNE 7.6 km/h 22 km/h 65% 0.0 mm
14:59 25.9 °C 19 °C 1011.9 hPa NE 9.2 km/h 22.5 km/h 65.4% 0.0 mm
15:04 25.9 °C 18.8 °C 1011.8 hPa NNE 10 km/h 22.5 km/h 65% 0.0 mm
15:09 25.8 °C 18.8 °C 1012.1 hPa NE 11.1 km/h 21.7 km/h 65.2% 0.0 mm
15:14 25.8 °C 18.8 °C 1012.1 hPa NE 11.9 km/h 24.1 km/h 65% 0.0 mm
15:19 25.8 °C 18.8 °C 1012.1 hPa NE 12.6 km/h 24.1 km/h 65.5% 0.0 mm
15:24 25.7 °C 18.9 °C 1012.1 hPa NE 13 km/h 22.5 km/h 66% 0.0 mm
15:29 25.7 °C 19.1 °C 1012.1 hPa ENE 13.4 km/h 22.5 km/h 67% 0.0 mm
15:34 25.6 °C 19.3 °C 1012.1 hPa NE 13.7 km/h 20.9 km/h 68.1% 0.0 mm
15:39 25.4 °C 19.3 °C 1012.1 hPa NNE 11.6 km/h 20.9 km/h 68.9% 0.0 mm
15:44 25.3 °C 19.4 °C 1011.7 hPa NE 10.3 km/h 18.5 km/h 69.8% 0.0 mm
15:49 25.3 °C 19.6 °C 1011.7 hPa Este 11.3 km/h 19.3 km/h 70.5% 0.0 mm
15:54 25.3 °C 19.5 °C 1011.8 hPa NE 11.9 km/h 20.4 km/h 69.9% 0.0 mm
15:59 25.2 °C 19.4 °C 1011.8 hPa NE 11.4 km/h 20.9 km/h 70.1% 0.0 mm
16:04 25.1 °C 19.6 °C 1011.8 hPa ENE 11.1 km/h 20.9 km/h 71.5% 0.0 mm
16:09 25.1 °C 19.7 °C 1012.0 hPa ENE 10.4 km/h 18 km/h 72% 0.0 mm
16:14 25 °C 19.4 °C 1012.0 hPa NE 10 km/h 19.3 km/h 71.1% 0.0 mm
16:19 24.9 °C 19 °C 1012.0 hPa NE 10.6 km/h 27.4 km/h 69.6% 0.0 mm
16:24 24.9 °C 18.8 °C 1012.0 hPa NE 11.1 km/h 28.6 km/h 68.7% 0.0 mm
16:29 24.9 °C 18.9 °C 1011.6 hPa Este 12.7 km/h 29 km/h 69.2% 0.0 mm
16:34 25 °C 19 °C 1011.5 hPa ESE 13.7 km/h 16.1 km/h 69.3% 0.0 mm
16:39 24.9 °C 18.8 °C 1011.5 hPa NE 10.6 km/h 14.8 km/h 68.9% 0.0 mm
16:44 24.9 °C 18.8 °C 1011.5 hPa NE 8.7 km/h 23.3 km/h 69% 0.0 mm
16:49 24.8 °C 19 °C 1011.5 hPa NE 12.2 km/h 27.8 km/h 70.2% 0.0 mm
16:54 24.8 °C 19.3 °C 1011.9 hPa Este 14.8 km/h 27.4 km/h 71.9% 0.0 mm
16:59 24.7 °C 19.3 °C 1011.9 hPa ENE 13 km/h 19.3 km/h 71.9% 0.0 mm
17:04 24.5 °C 19.2 °C 1011.9 hPa NE 11.9 km/h 19.3 km/h 72.3% 0.0 mm
17:09 24.7 °C 19.5 °C 1011.9 hPa NE 10.4 km/h 16.7 km/h 73.2% 0.5 mm
17:14 24.8 °C 19.7 °C 1010.9 hPa NE 9.5 km/h 24.1 km/h 73.1% 0.5 mm
17:19 24.9 °C 19.3 °C 1010.8 hPa ENE 10.8 km/h 24.1 km/h 71% 0.5 mm
17:24 24.9 °C 18.8 °C 1011.4 hPa ENE 11.9 km/h 23.3 km/h 68.9% 0.5 mm
17:29 24.9 °C 18.5 °C 1011.4 hPa NE 11.9 km/h 24.1 km/h 67.7% 0.5 mm
17:34 25 °C 18.7 °C 1011.4 hPa North 11.9 km/h 24.1 km/h 68.3% 0.5 mm
17:39 25.1 °C 18.7 °C 1011.4 hPa NNE 8.6 km/h 14.8 km/h 67.7% 0.5 mm
17:44 25.2 °C 18.9 °C 1011.2 hPa NNO 6.5 km/h 14.5 km/h 68% 0.5 mm
17:49 25.4 °C 19.3 °C 1011.2 hPa North 7.1 km/h 14.8 km/h 69% 0.5 mm
17:54 25.5 °C 19.1 °C 1012.1 hPa NNE 7.6 km/h 14.5 km/h 67.8% 0.5 mm
17:59 25.5 °C 19.1 °C 1012.1 hPa NNE 7.2 km/h 15.6 km/h 67.7% 0.5 mm
18:04 25.4 °C 18.9 °C 1012.1 hPa NNE 6.9 km/h 16.1 km/h 67.3% 0.5 mm
18:09 25.3 °C 18.9 °C 1012.5 hPa NNE 7.3 km/h 13.7 km/h 67.7% 0.5 mm
18:14 25.3 °C 18.7 °C 1012.5 hPa NE 7.6 km/h 19 km/h 66.7% 0.0 mm
18:19 25.4 °C 18.5 °C 1012.5 hPa NE 9.1 km/h 22.2 km/h 65.8% 0.0 mm
18:24 25.4 °C 18.4 °C 1012.5 hPa NE 10.3 km/h 22.5 km/h 65.2% 0.0 mm
18:29 25.4 °C 18.4 °C 1012.0 hPa NE 10.8 km/h 22.5 km/h 65.1% 0.0 mm
18:34 25.3 °C 18.7 °C 1011.9 hPa NE 11.1 km/h 22.5 km/h 66.7% 0.0 mm
18:39 25.2 °C 18.6 °C 1011.9 hPa NE 11.6 km/h 22.5 km/h 67% 0.0 mm
18:44 25.1 °C 18.6 °C 1011.6 hPa NE 11.9 km/h 24.5 km/h 67.3% 0.0 mm
18:49 24.8 °C 18.8 °C 1011.6 hPa NNE 13.6 km/h 24.1 km/h 68.9% 0.0 mm
18:54 24.7 °C 18.8 °C 1011.6 hPa NE 14.8 km/h 23.3 km/h 69.6% 0.0 mm
18:59 24.7 °C 18.8 °C 1011.3 hPa NE 14.3 km/h 24.1 km/h 70% 0.0 mm
19:04 24.6 °C 18.8 °C 1011.3 hPa NNE 14 km/h 24.1 km/h 70% 0.0 mm
19:08 24.6 °C 18.8 °C 1011.3 hPa NNE 14 km/h 24.1 km/h 70.4% 0.0 mm
19:19 24.3 °C 18.7 °C 1011.1 hPa NE 14.6 km/h 20.4 km/h 71% 0.0 mm
19:24 24.3 °C 18.7 °C 1011.1 hPa NE 14.8 km/h 20.9 km/h 71% 0.0 mm
19:29 24.2 °C 18.8 °C 1011.1 hPa NE 13.7 km/h 20.9 km/h 72% 0.0 mm
19:34 24.2 °C 18.8 °C 1011.1 hPa NE 13 km/h 22.5 km/h 72% 0.0 mm
19:39 24.2 °C 18.8 °C 1011.2 hPa NE 12.6 km/h 22.5 km/h 72% 0.0 mm
19:44 24.1 °C 18.7 °C 1011.2 hPa NE 12.2 km/h 16.1 km/h 72.1% 0.0 mm
19:49 24.1 °C 18.9 °C 1011.2 hPa NE 11 km/h 16.7 km/h 73% 0.0 mm
19:54 24 °C 18.9 °C 1011.2 hPa NNE 10 km/h 17.2 km/h 73.4% 0.0 mm
19:59 23.9 °C 18.9 °C 1010.8 hPa NNE 10 km/h 22.2 km/h 73.7% 0.0 mm
20:04 23.9 °C 19 °C 1010.8 hPa NE 10 km/h 24.1 km/h 74% 0.0 mm
20:09 23.8 °C 19 °C 1010.9 hPa NE 12.2 km/h 24.1 km/h 74.4% 0.0 mm
20:14 23.8 °C 19.1 °C 1010.9 hPa NE 13.7 km/h 22.2 km/h 75% 0.0 mm
20:19 23.7 °C 19 °C 1010.9 hPa NNE 12.9 km/h 22.5 km/h 75% 0.0 mm
20:24 23.7 °C 19.1 °C 1011.0 hPa NE 12.2 km/h 16.7 km/h 75.7% 0.0 mm
20:29 23.6 °C 19.1 °C 1011.0 hPa NE 11 km/h 17.2 km/h 76% 0.0 mm
20:34 23.5 °C 19.2 °C 1011.0 hPa NE 10 km/h 17.7 km/h 76.5% 0.0 mm
20:39 23.5 °C 19.2 °C 1011.7 hPa NE 10.2 km/h 16.1 km/h 77% 0.0 mm
20:44 23.4 °C 19.1 °C 1011.7 hPa NNE 10.3 km/h 14.5 km/h 77% 0.0 mm
20:49 23.4 °C 19.2 °C 1011.7 hPa NE 9.8 km/h 13 km/h 77% 0.0 mm
20:54 23.5 °C 19.2 °C 1012.1 hPa NE 9.5 km/h 13 km/h 77% 0.0 mm
20:59 23.5 °C 19.2 °C 1012.1 hPa NE 8 km/h 16.4 km/h 77% 0.0 mm
21:04 23.5 °C 19.2 °C 1012.1 hPa NE 6.9 km/h 16.7 km/h 77% 0.0 mm
21:09 23.5 °C 19.2 °C 1012.9 hPa NE 7.8 km/h 16.1 km/h 77% 0.0 mm
21:14 23.5 °C 19.2 °C 1012.9 hPa NE 8.4 km/h 11.9 km/h 77% 0.0 mm
21:19 23.5 °C 19.2 °C 1012.9 hPa NE 7.9 km/h 14.8 km/h 77% 0.0 mm
21:24 23.5 °C 19.2 °C 1013.0 hPa NE 7.6 km/h 14.5 km/h 77% 0.0 mm
21:29 23.5 °C 19.2 °C 1013.0 hPa NE 7.6 km/h 16.7 km/h 77% 0.0 mm
21:34 23.4 °C 19.2 °C 1013.0 hPa NE 7.6 km/h 16.1 km/h 77.6% 0.0 mm
21:39 23.4 °C 19.3 °C 1013.2 hPa ENE 8.2 km/h 18 km/h 78% 0.0 mm
21:44 23.3 °C 19.2 °C 1013.2 hPa Este 8.7 km/h 19.3 km/h 77.7% 0.0 mm
21:49 23.3 °C 19 °C 1013.2 hPa ESE 8 km/h 14.5 km/h 76.9% 0.0 mm
21:54 23.3 °C 18.8 °C 1013.2 hPa Este 7.6 km/h 15.6 km/h 76% 0.0 mm
21:59 23.3 °C 18.9 °C 1013.2 hPa ESE 7.2 km/h 16.1 km/h 76% 0.0 mm
22:04 23.3 °C 18.6 °C 1013.2 hPa Este 6.9 km/h 16.4 km/h 75.1% 0.0 mm
22:09 23.2 °C 18.5 °C 1013.3 hPa ENE 7.3 km/h 16.7 km/h 75% 0.0 mm
22:14 23.2 °C 18.5 °C 1013.3 hPa NE 7.6 km/h 16.4 km/h 75.3% 0.0 mm
22:19 23 °C 18.6 °C 1013.3 hPa NE 8.6 km/h 16.7 km/h 76.2% 0.0 mm
22:24 22.8 °C 18.6 °C 1013.5 hPa NE 9.5 km/h 16.1 km/h 77% 0.0 mm
22:29 22.8 °C 18.7 °C 1013.5 hPa ENE 9 km/h 16.1 km/h 77.7% 0.0 mm
22:34 22.7 °C 18.6 °C 1013.5 hPa NE 8.7 km/h 13 km/h 77.9% 0.0 mm
22:39 22.6 °C 18.6 °C 1013.6 hPa NE 8.1 km/h 14.8 km/h 78% 0.0 mm
22:44 22.5 °C 18.5 °C 1013.6 hPa NE 7.6 km/h 14.5 km/h 78.2% 0.0 mm
22:49 22.4 °C 18.6 °C 1013.6 hPa NE 7.6 km/h 13 km/h 79% 0.0 mm
22:54 22.3 °C 18.6 °C 1013.6 hPa NE 7.6 km/h 12.9 km/h 79.1% 0.0 mm
22:59 22.3 °C 18.7 °C 1013.3 hPa ENE 7.2 km/h 11.3 km/h 80% 0.0 mm
23:04 22.3 °C 18.7 °C 1013.3 hPa NNE 6.9 km/h 11.3 km/h 80% 0.0 mm
23:09 22.2 °C 18.6 °C 1013.3 hPa NNE 6.9 km/h 13 km/h 80% 0.0 mm
23:14 22.1 °C 18.7 °C 1013.1 hPa NNE 6.9 km/h 13.7 km/h 80.9% 0.0 mm
23:19 22.1 °C 18.7 °C 1013.1 hPa NE 6.9 km/h 14.5 km/h 81% 0.0 mm
23:24 22 °C 18.7 °C 1013.4 hPa NE 6.9 km/h 13 km/h 81.6% 0.0 mm
23:29 21.9 °C 18.7 °C 1013.4 hPa NE 7.3 km/h 13 km/h 82% 0.0 mm
23:34 21.9 °C 18.8 °C 1013.4 hPa NE 7.6 km/h 12.9 km/h 82.5% 0.0 mm
23:39 21.8 °C 18.8 °C 1013.4 hPa NE 7.6 km/h 13 km/h 83% 0.0 mm
23:44 21.8 °C 18.7 °C 1013.0 hPa NNE 7.6 km/h 15.6 km/h 83% 0.0 mm
23:49 21.7 °C 18.8 °C 1012.9 hPa NE 8.1 km/h 16.1 km/h 83.7% 0.0 mm
23:54 21.7 °C 18.9 °C 1012.9 hPa NE 8.4 km/h 13 km/h 84% 0.0 mm
23:59 21.6 °C 18.8 °C 1012.5 hPa NNE 6.8 km/h 12.9 km/h 84% 0.0 mm
Murcia-Puente Tocinos, España
Compliments of Weather Underground - 3.5 mb

La estación de MeteoMurcia.com, publica sus datos en los siguientes proyectos:

Weather Underground PWS IMURCIAP2 Meteoclimatic www.awekas.at

W3Counter
Web Analytics